Time;durP1;ratioP1;P1;durP2;ratioP2;P2;SDS_P1;SDS_P2;PMS_P1;PMS_P2;Temp;Humidity;BMP_temperature;BMP_pressure;BME280_temperature;BME280_humidity;BME280_pressure;Samples;Min_cycle;Max_cycle;Signal;HPM_P1;HPM_P2
2022/03/13 00:01:21;;;;;;;14.50;9.15;;;10.30;99.90;;;;;;6284330;22;20045;-93
2022/03/13 00:04:00;;;;;;;14.82;8.95;;;10.30;99.90;;;;;;6281866;22;20015;-92
2022/03/13 00:06:43;;;;;;;13.93;9.05;;;10.30;99.90;;;;;;6259039;22;20027;-93
2022/03/13 00:09:16;;;;;;;15.95;8.90;;;10.30;99.90;;;;;;6281897;22;20509;-92
2022/03/13 00:11:46;;;;;;;18.02;9.48;;;10.30;99.90;;;;;;6279875;22;20019;-92
2022/03/13 00:14:13;;;;;;;12.95;8.18;;;10.30;99.90;;;;;;6280881;22;20015;-93
2022/03/13 00:16:45;;;;;;;13.23;7.88;;;10.20;99.90;;;;;;6257360;22;20015;-93
2022/03/13 00:19:16;;;;;;;14.40;8.27;;;10.30;99.90;;;;;;6257029;22;20021;-93
2022/03/13 00:21:50;;;;;;;10.38;6.88;;;10.20;99.90;;;;;;6281981;22;20011;-93
2022/03/13 00:24:22;;;;;;;13.55;7.70;;;10.20;99.90;;;;;;6281589;22;20043;-92
2022/03/13 00:26:53;;;;;;;15.65;7.85;;;10.20;99.90;;;;;;6281849;22;20046;-93
2022/03/13 00:29:23;;;;;;;15.80;8.32;;;10.20;99.90;;;;;;6282136;22;20102;-92
2022/03/13 00:31:55;;;;;;;13.75;8.23;;;10.20;99.90;;;;;;6256079;22;20025;-92
2022/03/13 00:34:29;;;;;;;13.30;8.20;;;10.20;99.90;;;;;;6281385;22;20076;-93
2022/03/13 00:37:03;;;;;;;16.10;7.78;;;10.10;99.90;;;;;;6308572;22;20018;-93
2022/03/13 00:39:34;;;;;;;15.13;7.70;;;10.10;99.90;;;;;;6282090;22;20028;-93
2022/03/13 00:42:15;;;;;;;12.98;7.97;;;10.10;99.90;;;;;;6258276;22;20045;-92
2022/03/13 00:44:49;;;;;;;12.75;6.90;;;10.10;99.90;;;;;;6281658;22;20046;-93
2022/03/13 00:47:27;;;;;;;13.02;7.75;;;10.10;99.90;;;;;;6256758;22;20019;-92
2022/03/13 00:50:08;;;;;;;14.30;8.10;;;10.00;99.90;;;;;;6258459;22;20015;-93
2022/03/13 00:52:38;;;;;;;12.63;7.95;;;10.00;99.90;;;;;;6282479;22;20046;-92
2022/03/13 00:55:11;;;;;;;12.93;7.88;;;10.00;99.90;;;;;;6282701;22;20012;-92
2022/03/13 00:57:38;;;;;;;12.95;7.95;;;10.00;99.90;;;;;;6255788;22;20026;-93
2022/03/13 01:00:09;;;;;;;12.75;8.00;;;10.00;99.90;;;;;;6256781;22;20019;-92
2022/03/13 01:02:39;;;;;;;13.00;6.97;;;9.90;99.90;;;;;;6257356;22;20011;-92
2022/03/13 01:05:21;;;;;;;12.63;7.63;;;9.90;99.90;;;;;;6256081;22;20015;-92
2022/03/13 01:08:13;;;;;;;14.35;6.65;;;9.90;99.90;;;;;;6281576;22;20102;-93
2022/03/13 01:10:43;;;;;;;10.25;6.25;;;9.90;99.90;;;;;;6281128;22;20049;-93
2022/03/13 01:13:17;;;;;;;10.30;5.72;;;9.90;99.90;;;;;;6256289;22;20011;-92
2022/03/13 01:16:19;;;;;;;10.27;5.68;;;9.90;99.90;;;;;;6281279;22;20427;-93
2022/03/13 01:18:52;;;;;;;9.80;5.95;;;10.00;99.90;;;;;;6281279;22;20023;-93
2022/03/13 01:21:23;;;;;;;9.43;4.78;;;9.90;99.90;;;;;;6281026;22;20047;-93
2022/03/13 01:24:05;;;;;;;9.57;5.32;;;10.00;99.90;;;;;;6256283;22;20039;-92
2022/03/13 01:26:38;;;;;;;7.10;4.20;;;10.00;99.90;;;;;;6257104;22;20019;-92
2022/03/13 01:29:10;;;;;;;6.65;4.28;;;10.00;99.90;;;;;;6281378;22;20019;-93
2022/03/13 01:31:40;;;;;;;8.27;4.63;;;10.00;99.90;;;;;;6280796;22;20518;-92
2022/03/13 01:34:18;;;;;;;6.43;3.75;;;10.00;99.90;;;;;;6282958;22;20015;-92
2022/03/13 01:36:56;;;;;;;6.50;3.55;;;10.00;99.90;;;;;;6284182;22;20086;-92
2022/03/13 01:39:27;;;;;;;6.28;3.42;;;10.00;99.90;;;;;;6257229;22;20019;-91
2022/03/13 01:41:56;;;;;;;5.75;3.47;;;10.00;99.90;;;;;;6282645;22;20023;-91
2022/03/13 01:44:23;;;;;;;8.40;3.42;;;10.00;99.90;;;;;;6256610;22;20015;-91
2022/03/13 01:46:51;;;;;;;5.75;3.65;;;10.00;99.90;;;;;;6282586;22;20054;-90
2022/03/13 01:49:21;;;;;;;5.15;2.88;;;10.00;99.90;;;;;;6283247;22;20022;-92
2022/03/13 01:51:48;;;;;;;6.72;3.38;;;10.00;99.90;;;;;;6284465;22;20018;-91
2022/03/13 01:54:17;;;;;;;5.50;3.17;;;10.00;99.90;;;;;;6258218;22;20066;-91
2022/03/13 01:56:44;;;;;;;6.35;3.88;;;10.00;99.90;;;;;;6283800;22;20366;-91
2022/03/13 01:59:14;;;;;;;4.85;2.85;;;10.00;99.90;;;;;;6283245;22;20081;-90
2022/03/13 02:01:43;;;;;;;4.90;3.08;;;10.00;99.90;;;;;;6283214;22;20323;-91
2022/03/13 02:04:13;;;;;;;6.25;3.53;;;9.90;99.90;;;;;;6283299;22;20069;-92
2022/03/13 02:06:40;;;;;;;6.97;3.42;;;9.90;99.90;;;;;;6283385;22;20022;-92
2022/03/13 02:09:09;;;;;;;4.20;3.10;;;9.90;99.90;;;;;;6258933;22;20030;-92
2022/03/13 02:11:38;;;;;;;6.85;3.75;;;9.90;99.90;;;;;;6259419;22;20940;-91
2022/03/13 02:14:11;;;;;;;7.07;3.70;;;9.90;99.90;;;;;;6259225;22;20022;-91
2022/03/13 02:16:41;;;;;;;6.13;3.40;;;9.80;99.90;;;;;;6284340;22;20019;-91
2022/03/13 02:19:08;;;;;;;5.55;3.97;;;9.80;99.90;;;;;;6310214;22;20099;-91
2022/03/13 02:21:48;;;;;;;4.65;3.08;;;9.80;99.90;;;;;;6283270;22;20342;-91
2022/03/13 02:24:16;;;;;;;7.88;3.53;;;9.80;99.90;;;;;;6283867;22;20066;-91
2022/03/13 02:26:55;;;;;;;4.30;3.22;;;9.70;99.90;;;;;;6283206;22;20047;-90
2022/03/13 02:29:22;;;;;;;5.65;3.45;;;9.70;99.90;;;;;;6282483;22;20354;-90
2022/03/13 02:31:49;;;;;;;5.68;2.88;;;9.70;99.90;;;;;;6284387;22;20073;-91
2022/03/13 02:34:20;;;;;;;5.10;3.47;;;9.70;99.90;;;;;;6283709;22;20021;-91
2022/03/13 02:36:47;;;;;;;5.47;3.53;;;9.70;99.90;;;;;;6283105;22;20019;-92
2022/03/13 02:39:14;;;;;;;5.00;3.22;;;9.70;99.90;;;;;;6257782;22;20016;-92
2022/03/13 02:41:43;;;;;;;5.95;3.55;;;9.70;99.90;;;;;;6283262;22;20019;-91
2022/03/13 02:44:14;;;;;;;7.80;3.78;;;9.70;99.90;;;;;;6283759;22;20038;-91
2022/03/13 02:46:58;;;;;;;6.22;3.40;;;9.70;99.90;;;;;;6262412;22;20101;-91
2022/03/13 02:49:31;;;;;;;4.85;3.22;;;9.70;99.90;;;;;;6290605;22;20027;-91
2022/03/13 02:52:03;;;;;;;5.88;3.67;;;9.70;99.90;;;;;;6234019;22;20054;-91
2022/03/13 02:54:30;;;;;;;4.60;3.15;;;9.70;99.90;;;;;;6257830;22;20024;-91
2022/03/13 02:56:58;;;;;;;6.72;3.83;;;9.70;99.90;;;;;;6282293;22;20026;-91
2022/03/13 02:59:25;;;;;;;4.93;3.38;;;9.80;99.90;;;;;;6282459;22;20025;-91
2022/03/13 03:01:54;;;;;;;11.52;4.00;;;9.80;99.90;;;;;;6257828;22;20015;-92
2022/03/13 03:04:22;;;;;;;4.88;3.22;;;9.80;99.90;;;;;;6257619;22;20023;-91
2022/03/13 03:06:55;;;;;;;5.05;3.42;;;9.80;99.90;;;;;;6283040;22;20042;-91
2022/03/13 03:09:23;;;;;;;4.07;2.40;;;9.80;99.90;;;;;;6257365;22;20081;-92
2022/03/13 03:11:52;;;;;;;5.28;3.05;;;9.90;99.90;;;;;;6283465;22;20026;-92
2022/03/13 03:14:20;;;;;;;5.13;3.15;;;9.90;99.90;;;;;;6257958;22;20015;-93
2022/03/13 03:16:48;;;;;;;5.28;3.20;;;9.90;99.90;;;;;;6257257;22;20094;-92
2022/03/13 03:19:18;;;;;;;5.72;3.05;;;9.90;99.90;;;;;;6284304;22;20017;-92
2022/03/13 03:22:11;;;;;;;5.63;3.38;;;9.90;99.90;;;;;;6283809;22;20016;-92
2022/03/13 03:24:41;;;;;;;4.85;2.78;;;9.90;99.90;;;;;;6284385;22;20338;-92
2022/03/13 03:27:17;;;;;;;5.18;3.47;;;9.90;99.90;;;;;;6284086;22;20026;-92
2022/03/13 03:29:45;;;;;;;4.72;3.13;;;9.90;99.90;;;;;;6312272;22;20438;-92
2022/03/13 03:32:14;;;;;;;4.28;2.70;;;9.90;99.90;;;;;;6257623;22;20053;-91
2022/03/13 03:34:44;;;;;;;4.57;2.67;;;9.90;99.90;;;;;;6283254;22;20022;-92
2022/03/13 03:37:22;;;;;;;4.75;2.90;;;9.90;99.90;;;;;;6258413;22;20019;-92
2022/03/13 03:39:56;;;;;;;4.82;2.75;;;9.90;99.90;;;;;;6284039;22;20042;-93
2022/03/13 03:42:37;;;;;;;3.28;2.33;;;9.80;99.90;;;;;;6284779;22;20393;-92
2022/03/13 03:45:19;;;;;;;7.22;3.35;;;9.80;99.90;;;;;;6260149;22;20022;-92
2022/03/13 03:47:51;;;;;;;5.00;3.10;;;9.80;99.90;;;;;;6282121;22;20019;-91
2022/03/13 03:50:24;;;;;;;;;;;9.70;99.90;;;;;;6258629;22;20110;-92
2022/03/13 03:52:57;;;;;;;4.85;2.72;;;9.70;99.90;;;;;;6282901;22;19915;-92
2022/03/13 03:55:29;;;;;;;6.35;3.33;;;9.70;99.90;;;;;;6257759;22;20446;-92
2022/03/13 03:58:02;;;;;;;4.07;2.50;;;9.70;99.90;;;;;;6259727;22;20019;-92
2022/03/13 04:00:36;;;;;;;5.18;2.80;;;9.70;99.90;;;;;;6283776;22;20447;-92
2022/03/13 04:03:41;;;;;;;2.78;2.20;;;9.60;99.90;;;;;;6259197;22;20042;-92
2022/03/13 04:06:38;;;;;;;6.28;3.13;;;9.60;99.90;;;;;;6261909;22;20023;-91
2022/03/13 04:09:07;;;;;;;6.20;2.63;;;9.60;99.90;;;;;;6308525;22;20019;-91
2022/03/13 04:11:38;;;;;;;5.35;3.20;;;9.50;99.90;;;;;;6281391;22;20446;-92
2022/03/13 04:14:09;;;;;;;4.30;2.78;;;9.50;99.90;;;;;;6281552;22;20043;-91
2022/03/13 04:16:37;;;;;;;6.18;3.33;;;9.50;99.90;;;;;;6281623;22;20015;-92
2022/03/13 04:19:11;;;;;;;7.38;2.95;;;9.50;99.90;;;;;;6281568;22;20019;-91
2022/03/13 04:21:41;;;;;;;6.53;4.07;;;9.50;99.90;;;;;;6282940;22;20031;-92
2022/03/13 04:24:11;;;;;;;5.35;3.78;;;9.40;99.90;;;;;;6282111;22;20019;-91
2022/03/13 04:26:40;;;;;;;7.15;4.03;;;9.50;99.90;;;;;;6281531;22;20023;-91
2022/03/13 04:29:09;;;;;;;4.30;2.45;;;9.50;99.90;;;;;;6281559;22;20523;-92
2022/03/13 04:31:42;;;;;;;6.63;3.30;;;9.50;99.90;;;;;;6282939;22;20015;-93
2022/03/13 04:34:16;;;;;;;6.85;4.10;;;9.50;99.90;;;;;;6283938;22;20039;-91
2022/03/13 04:36:44;;;;;;;6.28;3.47;;;9.40;99.90;;;;;;6281974;22;20016;-92
2022/03/13 04:39:12;;;;;;;6.40;3.65;;;9.50;99.90;;;;;;6280924;22;20073;-93
2022/03/13 04:41:40;;;;;;;5.82;3.42;;;9.50;99.90;;;;;;6256149;22;20011;-91
2022/03/13 04:44:09;;;;;;;6.93;3.55;;;9.50;99.90;;;;;;6281393;22;20030;-92
2022/03/13 04:46:36;;;;;;;7.28;3.65;;;9.50;99.90;;;;;;6281652;22;20382;-92
2022/03/13 04:49:04;;;;;;;6.07;3.10;;;9.40;99.90;;;;;;6282236;22;20042;-92
2022/03/13 04:51:32;;;;;;;5.05;2.60;;;9.40;99.90;;;;;;6281038;22;20019;-92
2022/03/13 04:54:02;;;;;;;7.20;3.83;;;9.50;99.90;;;;;;6281188;22;20072;-92
2022/03/13 04:56:29;;;;;;;6.13;3.40;;;9.40;99.90;;;;;;6256060;22;20025;-90
2022/03/13 04:58:57;;;;;;;5.30;2.92;;;9.40;99.90;;;;;;6282027;22;20038;-92
2022/03/13 05:01:23;;;;;;;6.88;3.72;;;9.50;99.90;;;;;;6281056;22;20019;-91
2022/03/13 05:03:51;;;;;;;4.28;2.50;;;9.40;99.90;;;;;;6308349;22;20447;-91
2022/03/13 05:06:30;;;;;;;5.37;3.20;;;9.50;99.90;;;;;;6309733;22;20015;-92
2022/03/13 05:09:02;;;;;;;4.60;3.05;;;9.40;99.90;;;;;;6309162;22;20045;-91
2022/03/13 05:11:33;;;;;;;5.88;3.40;;;9.40;99.90;;;;;;6257964;22;20435;-91
2022/03/13 05:14:02;;;;;;;4.82;3.05;;;9.40;99.90;;;;;;6255855;22;20011;-91
2022/03/13 05:16:34;;;;;;;6.25;3.05;;;9.40;99.90;;;;;;6255765;22;20050;-92
2022/03/13 05:19:01;;;;;;;5.43;2.88;;;9.40;99.90;;;;;;6256166;22;20069;-91
2022/03/13 05:21:42;;;;;;;5.72;3.25;;;9.40;99.90;;;;;;6281682;22;20019;-92
2022/03/13 05:24:14;;;;;;;7.13;3.25;;;9.40;99.90;;;;;;6256419;22;20051;-92
2022/03/13 05:26:47;;;;;;;6.20;3.22;;;9.40;99.90;;;;;;6282462;22;20465;-92
2022/03/13 05:29:14;;;;;;;5.20;3.65;;;9.40;99.90;;;;;;6257109;22;20342;-92
2022/03/13 05:31:46;;;;;;;8.20;4.22;;;9.40;99.90;;;;;;6280768;22;20011;-92
2022/03/13 05:34:14;;;;;;;5.68;3.25;;;9.40;99.90;;;;;;6256199;22;20050;-91
2022/03/13 05:36:43;;;;;;;6.57;3.38;;;9.40;99.90;;;;;;6255790;22;20015;-91
2022/03/13 05:39:14;;;;;;;6.60;4.18;;;9.40;99.90;;;;;;6281542;22;20019;-91
2022/03/13 05:41:43;;;;;;;7.03;4.00;;;9.40;99.90;;;;;;6281243;22;20070;-92
2022/03/13 05:44:12;;;;;;;5.10;3.33;;;9.40;99.90;;;;;;6308559;22;20015;-92
2022/03/13 05:46:45;;;;;;;6.20;3.88;;;9.40;99.90;;;;;;6308698;22;20373;-92
2022/03/13 05:49:22;;;;;;;9.10;3.72;;;9.30;99.90;;;;;;6259484;22;20024;-92
2022/03/13 05:51:49;;;;;;;4.60;2.70;;;9.30;99.90;;;;;;6281797;22;20066;-91
2022/03/13 05:54:20;;;;;;;8.43;3.88;;;9.30;99.90;;;;;;6282047;22;20099;-92
2022/03/13 05:56:57;;;;;;;6.80;4.05;;;9.30;99.90;;;;;;6308461;22;20118;-92
2022/03/13 05:59:31;;;;;;;6.47;3.90;;;9.30;99.90;;;;;;6283249;22;20011;-92
2022/03/13 06:02:04;;;;;;;7.75;4.43;;;9.30;99.90;;;;;;6282930;22;20011;-91
2022/03/13 06:04:34;;;;;;;7.28;5.00;;;9.30;99.90;;;;;;6280107;22;20102;-92
2022/03/13 06:07:02;;;;;;;5.25;3.25;;;9.30;99.90;;;;;;6260126;22;20026;-91
2022/03/13 06:09:31;;;;;;;9.40;5.07;;;9.30;99.90;;;;;;6265706;22;20385;-92
2022/03/13 06:12:01;;;;;;;7.40;4.45;;;9.30;99.90;;;;;;6285158;22;20047;-92
2022/03/13 06:14:29;;;;;;;5.40;3.42;;;9.30;99.90;;;;;;6281351;22;20021;-92
2022/03/13 06:16:56;;;;;;;10.00;4.90;;;9.30;99.90;;;;;;6281186;22;20062;-91
2022/03/13 06:19:26;;;;;;;7.97;4.50;;;9.30;99.90;;;;;;6281266;22;20469;-93
2022/03/13 06:21:58;;;;;;;6.85;3.75;;;9.30;99.90;;;;;;6255281;22;20023;-91
2022/03/13 06:24:32;;;;;;;8.38;4.25;;;9.30;99.90;;;;;;6254770;22;20038;-92
2022/03/13 06:26:59;;;;;;;10.07;5.07;;;9.30;99.90;;;;;;6281518;22;20399;-92
2022/03/13 06:29:33;;;;;;;5.10;2.80;;;9.30;99.90;;;;;;6253579;22;20086;-92
2022/03/13 06:32:04;;;;;;;8.15;4.40;;;9.30;99.90;;;;;;6307309;22;20011;-91
2022/03/13 06:34:32;;;;;;;8.13;4.40;;;9.30;99.90;;;;;;6255242;22;20015;-92
2022/03/13 06:37:03;;;;;;;8.27;4.88;;;9.30;99.90;;;;;;6281732;22;20019;-91
2022/03/13 06:39:36;;;;;;;11.18;4.93;;;9.30;99.90;;;;;;6281644;22;20015;-92
2022/03/13 06:42:04;;;;;;;8.32;4.57;;;9.30;99.90;;;;;;6283559;22;20015;-92
2022/03/13 06:44:31;;;;;;;7.82;5.13;;;9.30;99.90;;;;;;6257548;22;20046;-92
2022/03/13 06:47:02;;;;;;;7.32;4.90;;;9.30;99.90;;;;;;6283760;22;20066;-92
2022/03/13 06:49:35;;;;;;;9.85;5.38;;;9.30;99.90;;;;;;6257366;22;20022;-93
2022/03/13 06:52:11;;;;;;;7.75;5.25;;;9.30;99.90;;;;;;6260166;22;20022;-91
2022/03/13 06:54:38;;;;;;;10.57;5.88;;;9.30;99.90;;;;;;6310240;22;20089;-92
2022/03/13 06:57:09;;;;;;;12.10;6.30;;;9.30;99.90;;;;;;6284461;22;20023;-92
2022/03/13 06:59:38;;;;;;;11.07;6.05;;;9.30;99.90;;;;;;6284218;22;20026;-91
2022/03/13 07:02:10;;;;;;;7.40;5.13;;;9.30;99.90;;;;;;6257021;22;20015;-92
2022/03/13 07:05:24;;;;;;;12.30;5.97;;;9.30;99.90;;;;;;6286297;22;20027;-93
2022/03/13 07:08:03;;;;;;;12.10;5.70;;;9.30;99.90;;;;;;6195590;22;20464;-92
2022/03/13 07:10:34;;;;;;;9.77;6.03;;;9.30;99.90;;;;;;6283323;22;20500;-91
2022/03/13 07:13:16;;;;;;;10.10;6.15;;;9.30;99.90;;;;;;6284397;22;20023;-91
2022/03/13 07:16:03;;;;;;;12.57;7.47;;;9.30;99.90;;;;;;6262177;22;20011;-92
2022/03/13 07:18:55;;;;;;;12.45;6.63;;;9.30;99.90;;;;;;6282563;22;20023;-92
2022/03/13 07:21:23;;;;;;;14.82;7.95;;;9.30;99.90;;;;;;6283546;22;20094;-91
2022/03/13 07:23:50;;;;;;;17.10;8.15;;;9.30;99.90;;;;;;6282920;22;20011;-91
2022/03/13 07:26:36;;;;;;;12.07;6.93;;;9.30;99.90;;;;;;6283389;22;20025;-91
2022/03/13 07:29:09;;;;;;;11.38;6.88;;;9.30;99.90;;;;;;6309898;22;20015;-91
2022/03/13 07:31:38;;;;;;;9.00;4.47;;;9.30;99.90;;;;;;6309524;22;20050;-92
2022/03/13 07:43:41;;;;;;;15.50;7.80;;;9.30;99.90;;;;;;6307542;22;20030;-92
2022/03/13 07:46:18;;;;;;;18.83;8.98;;;9.30;99.90;;;;;;6129961;23;20030;-91
2022/03/13 07:48:45;;;;;;;9.15;5.75;;;9.30;99.90;;;;;;6268676;22;20024;-91
2022/03/13 07:51:13;;;;;;;16.25;9.45;;;9.30;99.90;;;;;;6282312;22;20029;-91
2022/03/13 07:53:56;;;;;;;15.82;9.00;;;9.30;99.90;;;;;;6310645;22;20019;-94
2022/03/13 07:56:23;;;;;;;18.58;8.95;;;9.30;99.90;;;;;;6282875;22;20011;-91
2022/03/13 07:58:50;;;;;;;17.45;9.68;;;9.40;99.90;;;;;;6256234;22;20048;-92
2022/03/13 08:05:12;;;;;;;20.67;11.02;;;9.40;99.90;;;;;;6310553;22;20042;-93
2022/03/13 08:08:09;;;;;;;15.93;8.90;;;9.40;99.90;;;;;;6283967;22;20011;-92
2022/03/13 08:10:38;;;;;;;17.92;9.13;;;9.50;99.90;;;;;;6273307;22;20015;-91
2022/03/13 08:13:56;;;;;;;20.23;10.10;;;9.50;99.90;;;;;;6246516;22;20042;-93
2022/03/13 08:16:37;;;;;;;;;;;9.60;99.90;;;;;;6279262;22;20094;-91
2022/03/13 08:23:29;;;;;;;18.40;10.35;;;9.60;99.90;;;;;;6259813;22;20457;-91
2022/03/13 08:26:49;;;;;;;17.42;9.90;;;9.60;99.90;;;;;;6230574;22;20047;-92
2022/03/13 08:30:07;;;;;;;17.70;10.73;;;9.60;99.90;;;;;;6258617;22;20019;-92
2022/03/13 08:37:09;;;;;;;;;;;;;;;;;;;;;
2022/03/13 08:45:15;;;;;;;20.05;11.20;;;9.70;99.90;;;;;;6219876;23;20367;-93
2022/03/13 08:47:42;;;;;;;21.17;10.93;;;9.70;99.90;;;;;;6196366;23;20048;-91
2022/03/13 08:50:13;;;;;;;20.55;12.07;;;9.70;99.90;;;;;;6220862;23;20101;-91
2022/03/13 08:52:40;;;;;;;18.13;11.73;;;9.70;99.90;;;;;;6220118;23;20043;-92
2022/03/13 08:55:13;;;;;;;23.80;11.48;;;9.70;99.90;;;;;;6220493;23;20027;-91
2022/03/13 08:57:46;;;;;;;;;;;9.70;99.90;;;;;;6221030;23;20020;-91
2022/03/13 09:00:21;;;;;;;17.50;9.88;;;9.80;99.90;;;;;;6220276;23;19915;-91
2022/03/13 09:03:05;;;;;;;;;;;;;;;;;;;;;
2022/03/13 09:05:37;;;;;;;22.27;11.50;;;9.70;99.90;;;;;;6220503;23;20028;-91
2022/03/13 09:08:04;;;;;;;18.20;11.50;;;9.80;99.90;;;;;;6171271;23;20016;-91
2022/03/13 09:10:37;;;;;;;19.23;11.10;;;9.80;99.90;;;;;;6222147;23;20020;-90
2022/03/13 09:13:13;;;;;;;24.65;12.77;;;9.80;99.90;;;;;;6220043;23;20024;-91
2022/03/13 09:15:47;;;;;;;20.45;11.07;;;9.80;99.90;;;;;;6246663;23;20019;-91
2022/03/13 09:18:16;;;;;;;18.33;10.43;;;9.80;99.90;;;;;;6195246;23;20016;-92
2022/03/13 09:21:10;;;;;;;21.17;11.27;;;9.90;99.90;;;;;;6198354;23;20410;-92
2022/03/13 09:23:45;;;;;;;19.80;10.75;;;9.90;99.90;;;;;;6196795;23;20016;-90
2022/03/13 09:26:13;;;;;;;20.90;10.85;;;10.00;99.90;;;;;;6247100;23;20020;-91
2022/03/13 09:28:41;;;;;;;20.20;11.15;;;10.00;99.90;;;;;;6252479;23;20087;-90
2022/03/13 09:31:10;;;;;;;19.38;10.95;;;10.00;99.90;;;;;;6228537;23;20027;-91
2022/03/13 09:33:37;;;;;;;19.52;11.50;;;10.10;99.90;;;;;;6219904;23;20047;-91
2022/03/13 09:36:04;;;;;;;18.27;10.55;;;10.10;99.90;;;;;;6221538;23;20059;-92
2022/03/13 09:38:32;;;;;;;21.25;11.00;;;10.10;99.90;;;;;;6220674;23;20020;-91
2022/03/13 09:40:59;;;;;;;17.17;10.70;;;10.10;99.90;;;;;;6195133;23;20024;-90
2022/03/13 09:43:26;;;;;;;15.02;9.70;;;10.10;99.90;;;;;;6247043;23;20111;-90
2022/03/13 09:45:56;;;;;;;18.40;10.68;;;10.10;99.90;;;;;;6195637;23;20032;-91
2022/03/13 09:48:24;;;;;;;17.77;10.32;;;10.10;99.90;;;;;;6247326;23;20325;-92
2022/03/13 09:50:52;;;;;;;18.52;9.60;;;10.10;99.90;;;;;;6195164;23;20071;-90
2022/03/13 09:53:20;;;;;;;20.77;10.85;;;10.20;99.90;;;;;;6195567;23;20016;-90
2022/03/13 09:55:57;;;;;;;18.08;10.55;;;10.20;99.90;;;;;;6219480;23;20020;-91
2022/03/13 09:58:27;;;;;;;17.95;11.43;;;10.20;99.90;;;;;;6195510;23;20016;-91
2022/03/13 10:01:07;;;;;;;21.63;11.93;;;10.20;99.90;;;;;;6197561;23;20084;-91
2022/03/13 10:03:35;;;;;;;14.30;8.98;;;10.20;99.90;;;;;;6220463;23;20470;-91
2022/03/13 10:06:02;;;;;;;16.67;9.68;;;10.30;99.90;;;;;;6219955;23;20071;-90
2022/03/13 10:08:30;;;;;;;19.63;10.65;;;10.30;99.90;;;;;;6220616;23;20090;-91
2022/03/13 10:11:04;;;;;;;18.77;11.23;;;10.40;99.90;;;;;;6221776;23;20020;-90
2022/03/13 10:13:37;;;;;;;23.08;11.50;;;10.50;99.90;;;;;;6196767;23;20039;-91
2022/03/13 10:16:12;;;;;;;19.90;11.07;;;10.60;99.90;;;;;;6197433;23;20386;-91
2022/03/13 10:18:40;;;;;;;21.67;10.80;;;10.70;99.90;;;;;;6197014;23;20447;-91
2022/03/13 10:21:09;;;;;;;19.63;12.15;;;10.70;99.90;;;;;;6222425;23;20020;-91
2022/03/13 10:23:36;;;;;;;20.98;11.27;;;10.70;99.90;;;;;;6196813;23;20019;-91
2022/03/13 10:26:05;;;;;;;19.08;11.35;;;10.80;99.90;;;;;;6196951;23;20111;-91
2022/03/13 10:28:37;;;;;;;22.48;10.68;;;10.90;99.90;;;;;;6196602;23;20407;-91
2022/03/13 10:31:13;;;;;;;18.25;9.50;;;11.00;99.90;;;;;;6197658;23;20055;-91
2022/03/13 10:33:58;;;;;;;18.60;9.55;;;11.00;99.90;;;;;;6248157;23;20016;-91
2022/03/13 10:36:33;;;;;;;22.60;12.30;;;11.00;99.90;;;;;;6221184;23;20337;-92
2022/03/13 10:39:03;;;;;;;17.23;9.45;;;11.20;99.90;;;;;;6221720;23;20028;-91
2022/03/13 10:41:42;;;;;;;17.23;10.25;;;11.20;99.90;;;;;;6197250;23;20352;-91
2022/03/13 10:44:17;;;;;;;23.83;11.55;;;11.30;99.90;;;;;;6223886;23;20103;-91
2022/03/13 10:46:52;;;;;;;16.40;9.90;;;11.30;99.90;;;;;;6249066;23;20016;-90
2022/03/13 10:49:41;;;;;;;18.70;10.15;;;11.50;99.90;;;;;;6197055;23;20439;-94
2022/03/13 10:52:36;;;;;;;16.55;10.20;;;11.50;99.90;;;;;;6248450;23;20016;-94
2022/03/13 10:55:20;;;;;;;18.92;11.73;;;11.50;99.90;;;;;;6197692;23;20099;-90
2022/03/13 10:57:54;;;;;;;20.10;10.75;;;11.60;99.90;;;;;;6221475;23;20026;-90
2022/03/13 11:00:23;;;;;;;22.80;10.77;;;11.60;97.40;;;;;;6196281;23;20127;-91
2022/03/13 11:02:51;;;;;;;19.52;10.88;;;11.80;88.30;;;;;;6196345;23;20022;-92
2022/03/13 11:05:18;;;;;;;18.25;10.63;;;11.80;64.20;;;;;;6221936;23;20036;-90
2022/03/13 11:07:52;;;;;;;17.85;10.52;;;11.90;63.00;;;;;;6223401;23;20024;-93
2022/03/13 11:10:19;;;;;;;17.50;9.93;;;11.90;53.60;;;;;;6223791;23;20020;-91
2022/03/13 11:13:39;;;;;;;20.42;11.45;;;11.90;52.10;;;;;;6196982;23;20020;-92
2022/03/13 11:16:09;;;;;;;17.23;10.57;;;12.00;53.60;;;;;;6126004;23;20022;-91
2022/03/13 11:18:38;;;;;;;17.02;10.07;;;12.10;38.70;;;;;;6125742;23;20026;-91
2022/03/13 11:21:08;;;;;;;19.63;11.18;;;12.10;29.20;;;;;;6175337;23;20020;-90
2022/03/13 11:23:36;;;;;;;18.65;11.35;;;12.20;32.40;;;;;;6220816;23;20021;-91
2022/03/13 11:26:06;;;;;;;21.48;11.38;;;12.30;22.40;;;;;;6221576;23;20466;-90
2022/03/13 11:28:34;;;;;;;21.02;11.68;;;12.40;18.60;;;;;;6221423;23;20020;-92
2022/03/13 11:31:53;;;;;;;;;;;;;;;;;;;;;
2022/03/13 11:34:35;;;;;;;17.45;9.40;;;12.50;16.70;;;;;;6121737;23;20031;-91
2022/03/13 11:37:31;;;;;;;17.98;10.80;;;12.70;17.00;;;;;;6220506;23;20016;-90
2022/03/13 11:40:18;;;;;;;18.58;10.45;;;12.80;12.30;;;;;;6246335;23;20016;-93
2022/03/13 11:43:12;;;;;;;18.02;11.13;;;12.90;12.70;;;;;;6247421;23;20024;-93
2022/03/13 11:46:03;;;;;;;20.52;10.10;;;13.00;10.50;;;;;;6206482;23;20078;-92
2022/03/13 11:48:32;;;;;;;19.77;11.00;;;13.10;10.80;;;;;;6220473;23;20040;-90
2022/03/13 11:51:02;;;;;;;21.02;11.27;;;13.20;10.10;;;;;;6194845;23;20175;-91
2022/03/13 11:53:52;;;;;;;19.20;10.43;;;13.20;7.50;;;;;;6219708;23;20080;-91
2022/03/13 11:56:29;;;;;;;21.45;9.90;;;13.20;13.60;;;;;;6218734;23;20027;-91
2022/03/13 11:59:19;;;;;;;23.30;11.23;;;13.20;7.80;;;;;;6219497;23;20040;-92
2022/03/13 12:01:48;;;;;;;16.50;9.50;;;13.30;11.50;;;;;;6220082;23;20016;-92
2022/03/13 12:04:16;;;;;;;16.48;9.38;;;13.40;6.80;;;;;;6220055;23;20070;-92
2022/03/13 12:06:52;;;;;;;16.13;9.57;;;13.40;5.70;;;;;;6221393;23;20031;-91
2022/03/13 12:09:29;;;;;;;13.13;8.55;;;13.60;4.70;;;;;;6246116;23;20454;-90
2022/03/13 12:12:15;;;;;;;18.15;9.02;;;13.60;7.90;;;;;;6196547;23;20020;-91
2022/03/13 12:19:02;;;;;;;16.35;9.43;;;13.80;4.40;;;;;;6247657;23;20070;-91
2022/03/13 12:21:32;;;;;;;16.00;9.05;;;13.80;3.30;;;;;;6220430;23;20455;-91
2022/03/13 12:24:38;;;;;;;14.95;10.02;;;13.80;3.50;;;;;;6220481;23;20095;-92
2022/03/13 12:27:24;;;;;;;;;;;;;;;;;;;;;
2022/03/13 12:30:00;;;;;;;14.38;9.15;;;13.90;2.10;;;;;;6221258;23;20047;-92
2022/03/13 12:32:42;;;;;;;16.42;9.27;;;13.90;5.40;;;;;;6219784;23;20020;-91
2022/03/13 12:35:32;;;;;;;14.85;8.52;;;14.00;3.10;;;;;;6219096;23;20024;-91
2022/03/13 12:38:01;;;;;;;16.92;8.98;;;14.00;9.30;;;;;;6145811;23;1136673;-91
2022/03/13 12:40:33;;;;;;;13.40;8.32;;;14.00;2.40;;;;;;6220126;23;20016;-92
2022/03/13 12:43:07;;;;;;;18.90;9.68;;;14.00;2.90;;;;;;6196555;23;20043;-91
2022/03/13 12:45:51;;;;;;;11.85;7.60;;;14.10;8.60;;;;;;6220539;23;20022;-91
2022/03/13 12:48:29;;;;;;;13.98;8.48;;;14.10;3.10;;;;;;6222141;23;20028;-91
2022/03/13 12:51:00;;;;;;;13.50;8.98;;;14.20;3.30;;;;;;6224371;23;20470;-92
2022/03/13 12:53:34;;;;;;;13.02;7.93;;;14.20;6.80;;;;;;6221663;23;20020;-92
2022/03/13 12:56:29;;;;;;;14.45;8.88;;;14.30;11.30;;;;;;6220386;23;20043;-91
2022/03/13 12:59:27;;;;;;;;;;;14.20;2.00;;;;;;6247862;23;20791;-92
2022/03/13 13:02:10;;;;;;;13.63;8.02;;;14.30;3.30;;;;;;6221130;23;19916;-91
2022/03/13 13:04:41;;;;;;;16.67;7.20;;;14.30;2.00;;;;;;6219137;23;20099;-92
2022/03/13 13:07:14;;;;;;;13.73;7.60;;;14.40;4.80;;;;;;6247118;23;20020;-91
2022/03/13 13:09:45;;;;;;;12.98;7.55;;;14.40;1.20;;;;;;6221523;23;20051;-92
2022/03/13 13:12:20;;;;;;;13.20;8.02;;;14.50;4.30;;;;;;6247713;23;20114;-93
2022/03/13 13:14:54;;;;;;;16.45;7.95;;;14.50;1.00;;;;;;6196316;23;20020;-92
2022/03/13 13:17:24;;;;;;;11.48;7.10;;;14.50;2.10;;;;;;6221767;23;20016;-92
2022/03/13 13:24:59;;;;;;;14.88;8.07;;;14.60;2.30;;;;;;6248849;22;20037;-94
2022/03/13 13:27:51;;;;;;;11.13;7.45;;;14.60;1.50;;;;;;6284522;22;20046;-92
2022/03/13 13:30:33;;;;;;;11.82;6.90;;;14.70;4.90;;;;;;6282307;22;20046;-93
2022/03/13 13:33:04;;;;;;;15.23;7.55;;;14.80;12.80;;;;;;6280782;22;20011;-92
2022/03/13 13:35:35;;;;;;;13.35;8.38;;;14.90;4.30;;;;;;6281275;22;20046;-92
2022/03/13 13:38:11;;;;;;;11.45;7.05;;;14.90;2.50;;;;;;6308419;22;20090;-92
2022/03/13 13:40:47;;;;;;;13.45;7.82;;;14.90;3.20;;;;;;6280822;22;20015;-92
2022/03/13 13:43:29;;;;;;;15.45;8.57;;;15.00;1.00;;;;;;6308417;22;20019;-92
2022/03/13 13:46:39;;;;;;;16.65;7.45;;;15.10;4.40;;;;;;6282951;22;20022;-92
2022/03/13 13:49:07;;;;;;;10.85;7.32;;;15.10;6.90;;;;;;6216156;23;20058;-91
2022/03/13 13:51:40;;;;;;;13.10;7.53;;;15.30;6.50;;;;;;6190495;23;20031;-91
2022/03/13 13:54:15;;;;;;;11.48;7.07;;;15.20;2.30;;;;;;6214332;22;20045;-92
2022/03/13 13:56:54;;;;;;;11.68;7.65;;;15.20;12.20;;;;;;6258714;22;20023;-91
2022/03/13 14:03:24;;;;;;;10.85;6.03;;;15.40;7.70;;;;;;6278699;22;20026;-93
2022/03/13 14:06:03;;;;;;;11.10;6.30;;;15.50;9.00;;;;;;6286488;22;20015;-90
2022/03/13 14:09:05;;;;;;;10.48;6.40;;;15.50;2.20;;;;;;6283115;22;20012;-92